Terminal Aerodrome Forecast
Issued by NWS

Home | Current Version | Previous Version | Text Only | Print | Product List | Glossary On
Versions: 1 2 3 4 5 6 7 8 9 10 11 12 13 14 15 16
000
FTUS41 KLWX 211959 AAB
TAFMTN
TAF AMD
KMTN 211959Z 2120/2218 15008KT P6SM VCTS BKN040CB
      TEMPO 2120/2121 VRB25KT 2SM TSRA BKN008CB OVC015
     FM220300 17004KT P6SM BKN050
     FM221000 VRB03KT P6SM SCT250
     FM221500 18007KT P6SM SCT250
     FM221700 17011KT P6SM SCT250=

USA.gov is the U.S. government's official web portal to all federal, state and local government web resources and services.